Aviation Digital Data Service (ADDS)

Output produced by METARs form (0604 UTC 22 October 2021)
found at http://www.aviationweather.gov/metar/data/
 
METAR text: RJNK 220500Z 05019KT 9999 FEW030 19/08 Q1013
Conditions at: RJNK (KOMATSU (CIV/JAS, JP) observed 0500 UTC 22 October 2021
Temperature: 19.0°C (66°F)
Dewpoint: 8.0°C (46°F) [RH = 49%]
Pressure (altimeter): 29.91 inches Hg (1013.0 mb)
Winds: from the NE (50 degrees) at 22 MPH (19 knots; 9.8 m/s)
Visibility: 6 or more miles (10+ km)
Ceiling: at least 12,000 feet AGL
Clouds: few clouds at 3000 feet AGL
Weather: no significant weather observed at this time

Forecast for: RJNK (KOMATSU (CIV/JAS, JP)
Text: TAF RJNK 220505Z 2206/2312 04016KT 8000 -SHRA FEW015 BKN030
Forecast period: 0600 UTC 22 October 2021 to 1200 UTC 23 October 2021
Forecast type: FROM: standard forecast or significant change
Winds: from the NE (40 degrees) at 18 MPH (16 knots; 8.2 m/s)
Visibility: 5 miles (8 km)
Ceiling: 3000 feet AGL
Clouds: few clouds at 1500 feet AGL
broken clouds at 3000 feet AGL
Weather: -SHRA  (light rain showers)
Text: TEMPO 2212/2215 4000 SHRA BR
Forecast period: 1200 to 1500 UTC 22 October 2021
Forecast type: TEMPORARY: The following changes expected for less than half the time period
Visibility: 2.49 miles (4.01 km)
Ceiling: unknown
Clouds: missing
Weather: SHRA BR  (rain showers, mist)